Time;durP1;ratioP1;P1;durP2;ratioP2;P2;SDS_P1;SDS_P2;PMS_P1;PMS_P2;Temp;Humidity;BMP_temperature;BMP_pressure;BME280_temperature;BME280_humidity;BME280_pressure;Samples;Min_cycle;Max_cycle;Signal;HPM_P1;HPM_P2
2022/08/28 00:00:14;;;;;;;33.83;23.65;;;;;;;;;;5031747;28;20108;-74
2022/08/28 00:02:41;;;;;;;40.55;25.90;;;;;;;;;;5030629;28;20084;-74
2022/08/28 00:05:10;;;;;;;37.55;26.08;;;;;;;;;;5015236;28;20144;-74
2022/08/28 00:07:37;;;;;;;41.60;27.35;;;;;;;;;;5015678;28;20327;-73
2022/08/28 00:10:05;;;;;;;40.22;25.63;;;;;;;;;;5015147;28;20055;-73
2022/08/28 00:12:32;;;;;;;40.50;26.42;;;;;;;;;;5032810;28;20444;-73
2022/08/28 00:14:58;;;;;;;35.72;24.67;;;;;;;;;;5030803;28;20136;-73
2022/08/28 00:17:25;;;;;;;38.30;26.70;;;;;;;;;;5031270;28;20049;-74
2022/08/28 00:19:52;;;;;;;36.03;25.80;;;;;;;;;;5031589;28;20049;-74
2022/08/28 00:22:19;;;;;;;32.67;25.10;;;;;;;;;;5031632;28;20124;-74
2022/08/28 00:24:46;;;;;;;33.60;23.45;;;;;;;;;;5031510;28;20128;-73
2022/08/28 00:29:58;;;;;;;35.85;24.17;;;;;;;;;;5015679;28;20124;-73
2022/08/28 00:32:25;;;;;;;30.25;22.23;;;;;;;;;;5031564;28;20061;-74
2022/08/28 00:34:52;;;;;;;31.20;23.83;;;;;;;;;;5031309;28;20128;-74
2022/08/28 00:37:19;;;;;;;32.35;23.83;;;;;;;;;;5031409;28;20174;-74
2022/08/28 00:39:50;;;;;;;32.65;23.85;;;;;;;;;;5032396;28;20057;-74
2022/08/28 00:42:17;;;;;;;29.48;23.38;;;;;;;;;;5022475;28;20054;-74
2022/08/28 00:44:44;;;;;;;30.52;22.77;;;;;;;;;;5023306;28;20514;-74
2022/08/28 00:47:11;;;;;;;34.20;24.55;;;;;;;;;;5030732;28;20125;-74
2022/08/28 00:49:49;;;;;;;33.08;24.92;;;;;;;;;;5030928;28;20653;-74
2022/08/28 00:52:16;;;;;;;33.97;24.98;;;;;;;;;;5015989;28;20083;-74
2022/08/28 00:54:50;;;;;;;38.83;25.73;;;;;;;;;;5031085;28;20616;-74
2022/08/28 00:57:43;;;;;;;38.33;26.48;;;;;;;;;;5016733;28;20053;-75
2022/08/28 01:00:12;;;;;;;36.70;25.33;;;;;;;;;;5014842;28;20061;-74
2022/08/28 01:02:39;;;;;;;39.03;26.52;;;;;;;;;;5030887;28;20131;-74
2022/08/28 01:05:08;;;;;;;32.55;24.23;;;;;;;;;;5030972;28;20049;-74
2022/08/28 01:07:36;;;;;;;30.50;23.98;;;;;;;;;;5014875;28;20145;-74
2022/08/28 01:10:04;;;;;;;34.35;23.33;;;;;;;;;;5002289;28;20128;-74
2022/08/28 01:12:30;;;;;;;30.55;23.95;;;;;;;;;;5011283;28;20060;-74
2022/08/28 01:14:59;;;;;;;36.00;24.90;;;;;;;;;;4996479;28;20101;-74
2022/08/28 01:17:31;;;;;;;34.45;25.35;;;;;;;;;;4998934;28;20498;-74
2022/08/28 01:20:03;;;;;;;31.30;24.20;;;;;;;;;;5014787;28;20141;-74
2022/08/28 01:22:59;;;;;;;37.25;26.40;;;;;;;;;;5016880;28;20134;-73
2022/08/28 01:25:30;;;;;;;35.15;24.15;;;;;;;;;;5004735;28;20053;-74
2022/08/28 01:27:57;;;;;;;34.75;25.65;;;;;;;;;;4999098;28;20050;-74
2022/08/28 01:30:24;;;;;;;33.17;25.45;;;;;;;;;;5014640;28;20517;-74
2022/08/28 01:32:53;;;;;;;35.15;25.38;;;;;;;;;;5015009;28;20052;-74
2022/08/28 01:35:26;;;;;;;33.92;24.70;;;;;;;;;;5014932;28;20465;-74
2022/08/28 01:37:54;;;;;;;35.78;26.52;;;;;;;;;;4999233;28;20169;-74
2022/08/28 01:40:34;;;;;;;35.65;25.40;;;;;;;;;;5014483;28;20141;-74
2022/08/28 01:43:22;;;;;;;37.03;28.00;;;;;;;;;;5014607;28;20103;-74
2022/08/28 01:45:56;;;;;;;41.45;27.90;;;;;;;;;;5014836;28;20422;-74
2022/08/28 01:48:24;;;;;;;38.42;26.23;;;;;;;;;;5032256;28;20137;-74
2022/08/28 01:50:51;;;;;;;44.42;26.83;;;;;;;;;;5034255;28;20099;-74
2022/08/28 01:53:22;;;;;;;36.40;27.80;;;;;;;;;;5034019;28;20057;-74
2022/08/28 01:55:51;;;;;;;37.05;25.95;;;;;;;;;;5033985;28;20498;-74
2022/08/28 01:58:19;;;;;;;40.55;27.50;;;;;;;;;;5016818;28;20449;-74
2022/08/28 02:00:46;;;;;;;40.00;26.95;;;;;;;;;;5014138;28;20092;-73
2022/08/28 02:03:13;;;;;;;40.80;27.27;;;;;;;;;;5014341;28;20491;-74
2022/08/28 02:05:40;;;;;;;39.42;27.88;;;;;;;;;;5014285;28;20132;-74
2022/08/28 02:08:07;;;;;;;38.45;25.13;;;;;;;;;;5009312;28;20045;-75
2022/08/28 02:10:36;;;;;;;39.65;26.70;;;;;;;;;;5013952;28;20054;-75
2022/08/28 02:13:04;;;;;;;43.28;27.23;;;;;;;;;;4997990;28;20054;-74
2022/08/28 02:15:33;;;;;;;40.80;27.52;;;;;;;;;;4998090;28;20053;-74
2022/08/28 02:18:00;;;;;;;41.15;26.52;;;;;;;;;;5027432;28;20103;-74
2022/08/28 02:20:27;;;;;;;41.55;27.08;;;;;;;;;;5033969;28;20088;-74
2022/08/28 02:22:56;;;;;;;39.28;26.90;;;;;;;;;;5033837;28;20111;-74
2022/08/28 02:25:24;;;;;;;42.28;29.38;;;;;;;;;;5016525;28;20124;-74
2022/08/28 02:27:51;;;;;;;43.60;27.35;;;;;;;;;;5022569;28;20100;-75
2022/08/28 02:30:17;;;;;;;42.10;27.95;;;;;;;;;;5016840;28;20144;-74
2022/08/28 02:32:48;;;;;;;44.58;28.48;;;;;;;;;;5021678;28;20058;-74
2022/08/28 02:35:16;;;;;;;46.08;29.15;;;;;;;;;;5013798;28;20081;-74
2022/08/28 02:37:44;;;;;;;40.60;28.40;;;;;;;;;;5014505;28;20054;-74
2022/08/28 02:40:14;;;;;;;42.50;29.75;;;;;;;;;;5008069;28;20076;-74
2022/08/28 02:42:44;;;;;;;39.50;26.83;;;;;;;;;;5021164;28;20040;-74
2022/08/28 02:45:12;;;;;;;41.58;27.42;;;;;;;;;;5019202;28;20049;-75
2022/08/28 02:47:39;;;;;;;40.72;28.25;;;;;;;;;;5005596;28;20107;-74
2022/08/28 02:50:07;;;;;;;40.95;26.60;;;;;;;;;;4997394;28;20140;-75
2022/08/28 02:52:34;;;;;;;50.08;29.05;;;;;;;;;;5016641;28;20045;-75
2022/08/28 02:55:03;;;;;;;44.78;28.30;;;;;;;;;;5033103;28;20072;-75
2022/08/28 02:57:30;;;;;;;38.15;26.58;;;;;;;;;;5034594;28;20136;-74
2022/08/28 02:59:58;;;;;;;40.58;27.35;;;;;;;;;;5021030;28;20148;-74
2022/08/28 03:02:25;;;;;;;39.53;26.98;;;;;;;;;;5003479;28;20046;-75
2022/08/28 03:04:53;;;;;;;40.47;26.90;;;;;;;;;;5014638;28;20065;-74
2022/08/28 03:07:21;;;;;;;40.85;27.73;;;;;;;;;;5013128;28;20081;-74
2022/08/28 03:09:48;;;;;;;38.38;26.45;;;;;;;;;;5003835;28;20573;-74
2022/08/28 03:12:15;;;;;;;40.03;27.83;;;;;;;;;;5028610;28;20126;-74
2022/08/28 03:14:42;;;;;;;39.33;27.33;;;;;;;;;;5032660;28;20111;-74
2022/08/28 03:17:09;;;;;;;42.80;28.25;;;;;;;;;;5032501;28;20136;-74
2022/08/28 03:19:36;;;;;;;39.00;25.80;;;;;;;;;;5027089;28;20121;-75
2022/08/28 03:22:03;;;;;;;39.35;28.17;;;;;;;;;;5012884;28;20128;-74
2022/08/28 03:24:29;;;;;;;37.67;26.58;;;;;;;;;;5012657;28;20128;-74
2022/08/28 03:26:57;;;;;;;36.78;25.95;;;;;;;;;;4996388;28;20072;-75
2022/08/28 03:29:23;;;;;;;40.47;27.40;;;;;;;;;;5012657;28;20080;-74
2022/08/28 03:31:50;;;;;;;37.90;26.33;;;;;;;;;;5026606;28;20151;-75
2022/08/28 03:34:17;;;;;;;38.83;26.45;;;;;;;;;;5032005;28;20413;-74
2022/08/28 03:36:44;;;;;;;37.22;26.02;;;;;;;;;;5032128;28;20104;-75
2022/08/28 03:39:10;;;;;;;39.88;27.20;;;;;;;;;;5030716;28;20045;-74
2022/08/28 03:41:37;;;;;;;39.22;26.23;;;;;;;;;;5012146;28;20148;-74
2022/08/28 03:44:04;;;;;;;36.88;25.40;;;;;;;;;;5012455;28;20127;-74
2022/08/28 03:46:31;;;;;;;38.38;27.08;;;;;;;;;;5012072;28;20089;-74
2022/08/28 03:49:00;;;;;;;37.95;26.38;;;;;;;;;;4995653;28;20096;-74
2022/08/28 03:51:30;;;;;;;39.72;27.58;;;;;;;;;;5020700;28;20058;-74
2022/08/28 03:53:58;;;;;;;35.28;24.98;;;;;;;;;;5012072;28;20592;-74
2022/08/28 03:56:27;;;;;;;40.95;25.20;;;;;;;;;;5012502;28;20112;-74
2022/08/28 03:58:56;;;;;;;41.20;27.42;;;;;;;;;;4996829;28;20092;-74
2022/08/28 04:01:23;;;;;;;37.13;26.23;;;;;;;;;;5030427;28;20088;-74
2022/08/28 04:03:50;;;;;;;38.08;25.67;;;;;;;;;;5015374;28;20075;-74
2022/08/28 04:06:18;;;;;;;37.00;26.38;;;;;;;;;;5031540;28;20051;-75
2022/08/28 04:08:46;;;;;;;36.22;25.90;;;;;;;;;;5031311;28;20061;-75
2022/08/28 04:11:12;;;;;;;38.05;26.65;;;;;;;;;;4993668;28;20085;-75
2022/08/28 04:13:40;;;;;;;37.15;26.23;;;;;;;;;;5028576;28;20053;-74
2022/08/28 04:16:09;;;;;;;37.95;24.67;;;;;;;;;;5028336;28;20056;-75
2022/08/28 04:18:38;;;;;;;37.40;25.50;;;;;;;;;;5027792;28;20050;-75
2022/08/28 04:21:13;;;;;;;37.00;25.67;;;;;;;;;;5030851;28;20053;-75
2022/08/28 04:23:42;;;;;;;36.13;26.05;;;;;;;;;;5015258;28;20063;-74
2022/08/28 04:26:10;;;;;;;36.85;26.95;;;;;;;;;;4999075;28;20061;-74
2022/08/28 04:28:37;;;;;;;36.05;24.73;;;;;;;;;;5031639;28;20089;-75
2022/08/28 04:31:04;;;;;;;31.73;23.58;;;;;;;;;;5011087;28;20128;-75
2022/08/28 04:33:31;;;;;;;32.67;22.88;;;;;;;;;;5027753;28;20141;-74
2022/08/28 04:36:02;;;;;;;32.63;24.50;;;;;;;;;;5027844;28;20089;-74
2022/08/28 04:38:29;;;;;;;33.58;23.75;;;;;;;;;;5028004;28;20064;-74
2022/08/28 04:40:55;;;;;;;31.73;23.95;;;;;;;;;;5030832;28;20049;-74
2022/08/28 04:43:24;;;;;;;32.55;24.80;;;;;;;;;;5031505;28;20050;-74
2022/08/28 04:45:51;;;;;;;38.08;26.58;;;;;;;;;;5031130;28;20501;-74
2022/08/28 04:48:18;;;;;;;33.72;24.90;;;;;;;;;;5031004;28;20053;-74
2022/08/28 04:50:47;;;;;;;32.00;26.33;;;;;;;;;;5028963;28;20054;-74
2022/08/28 04:53:16;;;;;;;35.42;24.27;;;;;;;;;;5031144;28;20091;-74
2022/08/28 04:55:44;;;;;;;36.78;26.17;;;;;;;;;;5030995;28;20132;-74
2022/08/28 04:58:21;;;;;;;37.28;26.13;;;;;;;;;;5015987;28;20072;-75
2022/08/28 05:00:50;;;;;;;32.53;25.27;;;;;;;;;;5024440;28;20076;-74
2022/08/28 05:03:17;;;;;;;31.00;24.10;;;;;;;;;;5031052;28;20058;-75
2022/08/28 05:05:46;;;;;;;30.35;24.33;;;;;;;;;;5030766;28;20058;-74
2022/08/28 05:08:14;;;;;;;35.92;25.27;;;;;;;;;;5031414;28;20089;-74
2022/08/28 05:10:41;;;;;;;30.77;23.52;;;;;;;;;;5004115;28;20134;-77
2022/08/28 05:13:10;;;;;;;31.63;23.88;;;;;;;;;;5022311;28;20524;-77
2022/08/28 05:15:38;;;;;;;31.40;23.73;;;;;;;;;;5005542;28;20075;-77
2022/08/28 05:18:05;;;;;;;32.65;24.70;;;;;;;;;;5019481;28;20170;-77
2022/08/28 05:20:36;;;;;;;35.85;24.65;;;;;;;;;;4991149;28;20045;-77
2022/08/28 05:23:04;;;;;;;32.33;24.25;;;;;;;;;;5004851;28;20441;-77
2022/08/28 05:25:42;;;;;;;33.10;24.27;;;;;;;;;;5003734;28;20077;-77
2022/08/28 05:28:10;;;;;;;32.67;25.13;;;;;;;;;;5000414;28;20077;-76
2022/08/28 05:30:38;;;;;;;29.77;23.73;;;;;;;;;;5011005;28;20053;-77
2022/08/28 05:33:06;;;;;;;31.63;23.88;;;;;;;;;;4995001;28;20124;-76
2022/08/28 05:35:34;;;;;;;32.67;23.83;;;;;;;;;;4994708;28;20095;-76
2022/08/28 05:38:00;;;;;;;31.10;22.58;;;;;;;;;;4994795;28;20053;-76
2022/08/28 05:40:27;;;;;;;31.35;23.23;;;;;;;;;;5027099;28;20108;-76
2022/08/28 05:42:54;;;;;;;31.05;23.58;;;;;;;;;;5010858;28;20137;-76
2022/08/28 05:45:22;;;;;;;27.83;21.52;;;;;;;;;;4994791;28;20056;-77
2022/08/28 05:47:50;;;;;;;30.70;21.55;;;;;;;;;;4979134;28;20138;-78
2022/08/28 05:50:17;;;;;;;26.23;21.88;;;;;;;;;;5010831;28;20590;-75
2022/08/28 05:52:44;;;;;;;23.60;20.25;;;;;;;;;;4994618;28;20085;-75
2022/08/28 05:55:11;;;;;;;26.00;20.20;;;;;;;;;;5012299;28;20084;-80
2022/08/28 05:57:39;;;;;;;25.20;20.02;;;;;;;;;;5015482;28;20153;-79
2022/08/28 06:00:12;;;;;;;25.92;20.30;;;;;;;;;;5001943;28;20060;-79
2022/08/28 06:02:40;;;;;;;24.38;20.77;;;;;;;;;;5003054;28;20053;-78
2022/08/28 06:05:08;;;;;;;23.02;18.65;;;;;;;;;;5003489;28;20537;-78
2022/08/28 06:07:39;;;;;;;24.27;19.30;;;;;;;;;;5001214;28;20053;-78
2022/08/28 06:10:07;;;;;;;23.05;19.88;;;;;;;;;;4996749;28;20054;-77
2022/08/28 06:12:36;;;;;;;21.00;18.02;;;;;;;;;;5029824;28;20057;-79
2022/08/28 06:15:04;;;;;;;24.73;18.15;;;;;;;;;;5011673;28;20068;-78
2022/08/28 06:17:31;;;;;;;18.27;16.30;;;;;;;;;;4981082;28;20085;-79
2022/08/28 06:19:57;;;;;;;23.23;17.17;;;;;;;;;;5012591;28;20145;-79
2022/08/28 06:22:24;;;;;;;22.25;17.58;;;;;;;;;;4996487;28;20100;-79
2022/08/28 06:24:51;;;;;;;19.45;16.00;;;;;;;;;;4997878;28;20080;-79
2022/08/28 06:27:18;;;;;;;16.35;14.57;;;;;;;;;;4980861;28;20473;-79
2022/08/28 06:29:44;;;;;;;18.30;15.43;;;;;;;;;;4996827;28;20081;-79
2022/08/28 06:32:12;;;;;;;16.83;14.25;;;;;;;;;;5012974;28;20085;-78
2022/08/28 06:34:39;;;;;;;20.88;14.55;;;;;;;;;;5014577;28;20053;-80
2022/08/28 06:37:06;;;;;;;17.13;13.93;;;;;;;;;;5016582;28;20081;-78
2022/08/28 06:39:33;;;;;;;18.20;13.40;;;;;;;;;;5016187;28;20498;-79
2022/08/28 06:42:00;;;;;;;16.00;12.57;;;;;;;;;;5015680;28;20092;-78
2022/08/28 06:44:27;;;;;;;16.27;14.57;;;;;;;;;;5015726;28;20111;-78
2022/08/28 06:46:54;;;;;;;17.33;13.45;;;;;;;;;;5027563;28;20053;-78
2022/08/28 06:49:21;;;;;;;16.00;13.38;;;;;;;;;;5031598;28;20103;-77
2022/08/28 06:51:48;;;;;;;18.38;13.75;;;;;;;;;;5032052;28;20049;-77
2022/08/28 06:54:16;;;;;;;19.17;14.55;;;;;;;;;;5015372;28;20474;-78
2022/08/28 06:56:49;;;;;;;15.15;13.55;;;;;;;;;;5003532;28;20058;-79
2022/08/28 06:59:16;;;;;;;14.98;12.98;;;;;;;;;;4998508;28;20058;-77
2022/08/28 07:01:43;;;;;;;19.67;14.70;;;;;;;;;;5013438;28;20521;-77
2022/08/28 07:04:10;;;;;;;16.92;13.73;;;;;;;;;;4997872;28;20054;-77
2022/08/28 07:06:39;;;;;;;15.90;12.48;;;;;;;;;;5004338;28;20060;-76
2022/08/28 07:09:10;;;;;;;16.00;13.73;;;;;;;;;;5018233;28;20050;-77
2022/08/28 07:11:37;;;;;;;19.05;13.93;;;;;;;;;;4995903;28;20054;-77
2022/08/28 07:14:04;;;;;;;17.13;12.80;;;;;;;;;;5010994;28;20128;-76
2022/08/28 07:16:34;;;;;;;13.50;12.10;;;;;;;;;;5009351;28;20088;-80
2022/08/28 07:19:04;;;;;;;15.05;11.57;;;;;;;;;;4999996;28;20107;-80
2022/08/28 07:21:34;;;;;;;14.05;12.55;;;;;;;;;;5014104;28;20532;-77
2022/08/28 07:24:05;;;;;;;15.25;11.02;;;;;;;;;;5005395;28;20046;-77
2022/08/28 07:26:33;;;;;;;17.00;12.60;;;;;;;;;;5004555;28;20430;-78
2022/08/28 07:29:03;;;;;;;13.95;11.57;;;;;;;;;;5003849;28;20049;-79
2022/08/28 07:31:38;;;;;;;13.10;11.40;;;;;;;;;;5005127;28;20053;-79
2022/08/28 07:34:05;;;;;;;15.80;12.02;;;;;;;;;;5018676;28;20058;-78
2022/08/28 07:36:31;;;;;;;13.60;10.70;;;;;;;;;;5034938;28;20057;-77
2022/08/28 07:38:58;;;;;;;19.15;11.93;;;;;;;;;;5023965;28;20145;-79
2022/08/28 07:41:27;;;;;;;15.18;11.80;;;;;;;;;;5007650;28;20057;-80
2022/08/28 07:46:40;;;;;;;16.58;10.70;;;;;;;;;;5037093;28;20046;-78
2022/08/28 07:49:07;;;;;;;14.55;10.60;;;;;;;;;;4991360;28;20054;-78
2022/08/28 07:51:34;;;;;;;15.70;10.48;;;;;;;;;;5014278;28;20053;-78
2022/08/28 07:54:02;;;;;;;12.27;10.55;;;;;;;;;;5000873;28;20109;-80
2022/08/28 07:56:30;;;;;;;15.07;9.88;;;;;;;;;;4995993;28;20050;-78
2022/08/28 07:58:58;;;;;;;12.18;10.23;;;;;;;;;;5015088;28;20077;-78
2022/08/28 08:01:27;;;;;;;12.90;11.05;;;;;;;;;;5008642;28;20056;-78
2022/08/28 08:03:56;;;;;;;11.95;9.50;;;;;;;;;;5009727;28;20699;-78
2022/08/28 08:06:30;;;;;;;10.27;8.98;;;;;;;;;;5003908;28;20502;-78
2022/08/28 08:09:00;;;;;;;10.93;9.20;;;;;;;;;;5013667;28;20084;-78
2022/08/28 08:11:28;;;;;;;12.80;10.57;;;;;;;;;;5018529;28;20072;-78
2022/08/28 08:14:02;;;;;;;9.95;9.02;;;;;;;;;;5019299;28;20048;-78
2022/08/28 08:16:34;;;;;;;13.50;9.48;;;;;;;;;;5008727;28;20097;-78
2022/08/28 08:19:01;;;;;;;10.35;8.88;;;;;;;;;;5016171;28;20054;-78
2022/08/28 08:21:28;;;;;;;12.65;8.60;;;;;;;;;;4992727;28;20130;-78
2022/08/28 08:23:56;;;;;;;11.63;8.15;;;;;;;;;;5007548;28;20054;-78
2022/08/28 08:26:29;;;;;;;10.98;7.65;;;;;;;;;;5026530;28;20140;-79
2022/08/28 08:28:56;;;;;;;8.93;7.57;;;;;;;;;;5003879;28;20057;-79
2022/08/28 08:31:31;;;;;;;11.68;8.32;;;;;;;;;;5012608;28;20081;-78
2022/08/28 08:34:00;;;;;;;10.05;8.05;;;;;;;;;;5002609;28;20706;-78
2022/08/28 08:36:28;;;;;;;11.40;7.80;;;;;;;;;;5024177;28;20045;-79
2022/08/28 08:38:56;;;;;;;12.38;7.43;;;;;;;;;;5008048;28;20045;-78
2022/08/28 08:41:30;;;;;;;11.65;7.78;;;;;;;;;;4999115;28;20143;-79
2022/08/28 08:44:01;;;;;;;11.95;7.93;;;;;;;;;;5020513;28;20057;-79
2022/08/28 08:46:52;;;;;;;10.52;7.90;;;;;;;;;;5000797;28;20057;-79
2022/08/28 08:49:24;;;;;;;12.40;8.45;;;;;;;;;;4999305;28;20053;-79
2022/08/28 08:52:10;;;;;;;13.57;7.32;;;;;;;;;;4992804;28;20103;-78
2022/08/28 08:54:41;;;;;;;8.68;7.85;;;;;;;;;;5013667;28;20137;-78
2022/08/28 08:57:12;;;;;;;8.95;7.50;;;;;;;;;;4990744;28;20128;-78
2022/08/28 08:59:40;;;;;;;9.80;8.30;;;;;;;;;;5001062;28;20608;-79
2022/08/28 09:02:17;;;;;;;8.18;7.32;;;;;;;;;;4997158;28;20569;-79
2022/08/28 09:04:50;;;;;;;9.95;8.63;;;;;;;;;;5004132;28;20080;-79
2022/08/28 09:07:52;;;;;;;9.48;7.55;;;;;;;;;;5031745;28;20057;-79
2022/08/28 09:10:19;;;;;;;9.57;7.88;;;;;;;;;;5021997;28;20121;-79
2022/08/28 09:12:52;;;;;;;10.40;7.10;;;;;;;;;;5016767;28;20503;-78
2022/08/28 09:15:54;;;;;;;10.25;8.00;;;;;;;;;;5037240;28;20034;-77
2022/08/28 09:18:24;;;;;;;8.98;6.95;;;;;;;;;;5036983;28;20502;-77
2022/08/28 09:20:53;;;;;;;9.48;7.75;;;;;;;;;;5030738;28;20062;-78
2022/08/28 09:23:24;;;;;;;12.82;7.75;;;;;;;;;;5032505;28;20037;-79
2022/08/28 09:25:58;;;;;;;9.45;6.80;;;;;;;;;;5012747;28;20100;-80
2022/08/28 09:28:49;;;;;;;12.30;8.45;;;;;;;;;;5013143;28;20090;-85
2022/08/28 09:31:31;;;;;;;8.70;7.03;;;;;;;;;;4999623;28;20084;-73
2022/08/28 09:34:24;;;;;;;10.82;7.53;;;;;;;;;;5005046;28;20403;-85
2022/08/28 09:36:51;;;;;;;;;;;;;;;;;;5020839;28;20583;-76
2022/08/28 09:39:23;;;;;;;12.18;7.60;;;;;;;;;;5027384;28;19948;-78
2022/08/28 09:44:55;;;;;;;11.00;7.55;;;;;;;;;;5043716;28;20426;-77
2022/08/28 09:47:47;;;;;;;7.78;7.03;;;;;;;;;;5061458;28;20084;-73
2022/08/28 09:50:31;;;;;;;8.02;6.07;;;;;;;;;;5043120;28;20876;-73
2022/08/28 09:53:19;;;;;;;10.02;6.43;;;;;;;;;;5040784;28;20056;-73
2022/08/28 09:56:04;;;;;;;7.60;6.05;;;;;;;;;;5042531;28;20054;-81
2022/08/28 09:58:33;;;;;;;9.13;6.47;;;;;;;;;;5043999;28;20085;-77
2022/08/28 10:01:25;;;;;;;7.88;6.95;;;;;;;;;;5033985;28;20132;-76
2022/08/28 10:04:00;;;;;;;7.38;6.60;;;;;;;;;;5042951;28;20077;-76
2022/08/28 10:06:28;;;;;;;6.68;5.95;;;;;;;;;;5031736;28;20049;-77
2022/08/28 10:09:10;;;;;;;9.98;6.97;;;;;;;;;;5028142;28;20046;-75
2022/08/28 10:11:43;;;;;;;7.22;6.50;;;;;;;;;;5038631;28;20046;-75
2022/08/28 10:14:20;;;;;;;6.53;5.78;;;;;;;;;;5021604;28;20061;-74
2022/08/28 10:16:58;;;;;;;7.00;6.30;;;;;;;;;;5041461;28;20097;-74
2022/08/28 10:19:37;;;;;;;7.43;6.07;;;;;;;;;;5036525;28;20084;-75
2022/08/28 10:22:08;;;;;;;15.18;7.07;;;;;;;;;;5023390;28;20061;-74
2022/08/28 10:24:38;;;;;;;9.23;6.93;;;;;;;;;;5034475;28;20080;-74
2022/08/28 10:27:10;;;;;;;7.38;6.65;;;;;;;;;;5026719;28;20053;-75
2022/08/28 10:29:51;;;;;;;7.65;6.68;;;;;;;;;;5022520;28;20069;-74
2022/08/28 10:32:24;;;;;;;8.10;6.95;;;;;;;;;;5044065;28;20073;-74
2022/08/28 10:35:06;;;;;;;8.43;7.15;;;;;;;;;;5039581;28;20116;-78
2022/08/28 10:37:43;;;;;;;9.20;6.97;;;;;;;;;;5007531;28;20156;-78
2022/08/28 10:40:27;;;;;;;8.88;6.93;;;;;;;;;;5025491;28;20085;-77
2022/08/28 10:43:06;;;;;;;9.27;6.25;;;;;;;;;;5006199;28;20046;-77
2022/08/28 10:45:33;;;;;;;8.38;6.25;;;;;;;;;;5011313;28;20072;-76
2022/08/28 10:48:16;;;;;;;8.82;6.75;;;;;;;;;;5001454;28;20152;-76
2022/08/28 10:50:46;;;;;;;6.20;5.50;;;;;;;;;;5018022;28;20054;-75
2022/08/28 10:53:48;;;;;;;7.88;5.78;;;;;;;;;;5015773;28;20133;-76
2022/08/28 10:56:20;;;;;;;10.20;6.10;;;;;;;;;;5013482;28;20140;-76
2022/08/28 10:58:49;;;;;;;6.40;5.80;;;;;;;;;;5016314;28;20057;-76
2022/08/28 11:01:36;;;;;;;8.77;6.50;;;;;;;;;;5001395;28;20132;-77
2022/08/28 11:04:07;;;;;;;7.25;5.75;;;;;;;;;;5000685;28;20054;-77
2022/08/28 11:06:38;;;;;;;8.50;6.82;;;;;;;;;;5013955;28;20054;-77
2022/08/28 11:09:23;;;;;;;11.30;6.22;;;;;;;;;;4997809;28;20494;-77
2022/08/28 11:11:55;;;;;;;8.32;6.18;;;;;;;;;;5000886;28;20136;-77
2022/08/28 11:14:39;;;;;;;6.85;5.70;;;;;;;;;;5010535;28;20573;-77
2022/08/28 11:17:31;;;;;;;8.73;6.53;;;;;;;;;;5015455;28;20049;-76
2022/08/28 11:20:17;;;;;;;6.35;5.20;;;;;;;;;;5016625;28;20498;-76
2022/08/28 11:22:57;;;;;;;8.45;6.32;;;;;;;;;;5021677;28;20128;-76
2022/08/28 11:25:41;;;;;;;8.90;5.80;;;;;;;;;;4985970;28;20050;-75
2022/08/28 11:28:21;;;;;;;8.60;6.18;;;;;;;;;;5015296;28;20332;-75
2022/08/28 11:31:04;;;;;;;9.38;5.25;;;;;;;;;;5016548;28;20050;-76
2022/08/28 11:33:46;;;;;;;7.95;5.57;;;;;;;;;;5014209;28;20058;-76
2022/08/28 11:36:19;;;;;;;9.40;5.50;;;;;;;;;;5023612;28;20188;-76
2022/08/28 11:38:54;;;;;;;8.10;5.63;;;;;;;;;;5015124;28;20476;-77
2022/08/28 11:41:26;;;;;;;6.72;5.70;;;;;;;;;;5013695;28;20141;-77
2022/08/28 11:44:09;;;;;;;6.80;5.55;;;;;;;;;;5015341;28;20133;-76
2022/08/28 11:46:41;;;;;;;7.90;5.53;;;;;;;;;;5017976;28;20560;-77
2022/08/28 11:49:26;;;;;;;9.18;6.45;;;;;;;;;;4989359;28;20055;-77
2022/08/28 11:52:11;;;;;;;6.45;5.55;;;;;;;;;;5017184;28;20092;-76
2022/08/28 11:54:55;;;;;;;6.28;5.22;;;;;;;;;;5021779;28;20081;-76
2022/08/28 11:57:38;;;;;;;5.97;5.07;;;;;;;;;;5009166;28;20140;-76
2022/08/28 12:00:09;;;;;;;6.03;4.53;;;;;;;;;;5005698;28;20553;-76
2022/08/28 12:02:39;;;;;;;6.40;4.70;;;;;;;;;;5012592;28;20185;-77
2022/08/28 12:05:15;;;;;;;8.30;5.03;;;;;;;;;;5016647;28;20054;-72
2022/08/28 12:07:44;;;;;;;7.95;5.68;;;;;;;;;;5014548;28;20093;-72
2022/08/28 12:10:24;;;;;;;7.78;4.93;;;;;;;;;;5015623;28;20045;-72
2022/08/28 12:13:01;;;;;;;7.43;6.03;;;;;;;;;;5017261;28;20515;-72
2022/08/28 12:15:31;;;;;;;6.03;5.40;;;;;;;;;;5014792;28;20048;-73
2022/08/28 12:18:56;;;;;;;10.18;5.50;;;;;;;;;;5015092;28;20077;-73
2022/08/28 12:21:24;;;;;;;7.25;5.75;;;;;;;;;;4966490;28;20050;-73
2022/08/28 12:24:01;;;;;;;8.60;5.20;;;;;;;;;;5011905;28;20058;-71
2022/08/28 12:26:38;;;;;;;6.25;4.80;;;;;;;;;;5015203;28;20072;-72
2022/08/28 12:29:06;;;;;;;8.02;5.15;;;;;;;;;;5013515;28;20060;-73
2022/08/28 12:34:56;;;;;;;8.15;4.85;;;;;;;;;;5015970;28;20045;-73
2022/08/28 12:37:42;;;;;;;6.00;4.35;;;;;;;;;;4987801;28;20054;-73
2022/08/28 12:40:26;;;;;;;7.30;4.32;;;;;;;;;;5012474;28;20045;-72
2022/08/28 12:42:58;;;;;;;6.10;4.03;;;;;;;;;;5019446;28;20475;-73
2022/08/28 12:45:31;;;;;;;6.47;4.00;;;;;;;;;;5014143;28;20058;-74
2022/08/28 12:48:00;;;;;;;9.30;4.30;;;;;;;;;;5012322;28;20144;-77
2022/08/28 12:50:31;;;;;;;4.65;3.90;;;;;;;;;;4992328;28;20105;-77
2022/08/28 12:53:00;;;;;;;7.88;4.35;;;;;;;;;;5013907;28;20422;-82
2022/08/28 12:55:27;;;;;;;6.07;4.43;;;;;;;;;;5005924;28;20632;-77
2022/08/28 12:57:54;;;;;;;4.38;3.97;;;;;;;;;;5007365;28;20077;-78
2022/08/28 13:00:25;;;;;;;4.97;3.60;;;;;;;;;;4991290;28;20060;-78
2022/08/28 13:02:53;;;;;;;5.57;3.67;;;;;;;;;;5005995;28;20104;-77
2022/08/28 13:05:33;;;;;;;7.78;4.47;;;;;;;;;;5015918;28;20137;-78
2022/08/28 13:08:05;;;;;;;6.60;3.53;;;;;;;;;;5022010;28;20084;-78
2022/08/28 13:10:46;;;;;;;;;;;;;;;;;;5005046;28;20176;-78
2022/08/28 13:13:29;;;;;;;6.22;4.47;;;;;;;;;;5008306;28;19957;-78
2022/08/28 13:16:01;;;;;;;5.38;3.85;;;;;;;;;;5011014;28;20128;-78
2022/08/28 13:18:41;;;;;;;7.40;4.03;;;;;;;;;;5029306;28;20104;-78
2022/08/28 13:21:17;;;;;;;5.07;3.70;;;;;;;;;;5001746;28;20124;-77
2022/08/28 13:24:34;;;;;;;7.85;3.65;;;;;;;;;;5020919;28;20046;-79
2022/08/28 13:27:21;;;;;;;8.10;3.33;;;;;;;;;;5018103;28;20125;-79
2022/08/28 13:30:33;;;;;;;4.82;3.60;;;;;;;;;;4986811;28;20580;-78
2022/08/28 13:33:20;;;;;;;4.00;3.35;;;;;;;;;;5004483;28;20080;-77
2022/08/28 13:35:48;;;;;;;4.07;3.33;;;;;;;;;;5019365;28;20050;-79
2022/08/28 13:38:17;;;;;;;3.80;3.15;;;;;;;;;;4994029;28;20556;-82
2022/08/28 13:40:48;;;;;;;4.63;2.92;;;;;;;;;;5016541;28;20050;-81
2022/08/28 13:43:26;;;;;;;5.28;3.20;;;;;;;;;;5014278;28;20061;-81
2022/08/28 13:45:53;;;;;;;3.30;2.97;;;;;;;;;;4999411;28;20042;-78
2022/08/28 13:48:25;;;;;;;5.15;3.60;;;;;;;;;;4985058;28;20152;-81
2022/08/28 13:50:55;;;;;;;3.58;3.25;;;;;;;;;;5004885;28;20125;-78
2022/08/28 13:53:22;;;;;;;8.98;4.03;;;;;;;;;;5020104;28;20585;-79
2022/08/28 13:55:49;;;;;;;4.35;3.00;;;;;;;;;;5013881;28;20058;-78
2022/08/28 13:58:16;;;;;;;3.30;3.03;;;;;;;;;;5016437;28;20069;-79
2022/08/28 14:00:45;;;;;;;3.33;2.85;;;;;;;;;;5012647;28;20050;-83
2022/08/28 14:05:57;;;;;;;4.15;2.83;;;;;;;;;;5020079;28;20077;-80
2022/08/28 14:08:24;;;;;;;5.25;3.70;;;;;;;;;;5015609;28;20054;-80
2022/08/28 14:10:51;;;;;;;3.50;3.03;;;;;;;;;;5020556;28;20081;-83
2022/08/28 14:13:19;;;;;;;4.40;3.42;;;;;;;;;;5006421;28;20545;-83
2022/08/28 14:15:46;;;;;;;3.75;3.20;;;;;;;;;;5014336;28;20073;-83
2022/08/28 14:18:13;;;;;;;5.32;3.55;;;;;;;;;;5017252;28;20136;-82
2022/08/28 14:20:39;;;;;;;4.78;4.07;;;;;;;;;;4999002;28;20113;-74
2022/08/28 14:23:08;;;;;;;4.72;3.63;;;;;;;;;;5014152;28;20137;-73
2022/08/28 14:25:42;;;;;;;6.22;3.35;;;;;;;;;;5015969;28;20064;-73
2022/08/28 14:28:09;;;;;;;3.85;3.17;;;;;;;;;;5007896;28;20140;-72
2022/08/28 14:30:44;;;;;;;5.10;3.38;;;;;;;;;;5016389;28;20573;-73
2022/08/28 14:33:11;;;;;;;4.75;3.50;;;;;;;;;;5002578;28;20137;-73
2022/08/28 14:35:39;;;;;;;4.30;3.20;;;;;;;;;;5014474;28;20502;-74
2022/08/28 14:38:09;;;;;;;5.20;3.70;;;;;;;;;;5002041;28;20086;-72
2022/08/28 14:40:37;;;;;;;4.30;3.25;;;;;;;;;;5005968;28;20050;-73
2022/08/28 14:43:05;;;;;;;3.60;3.30;;;;;;;;;;4994864;28;20081;-74
2022/08/28 14:45:32;;;;;;;4.35;3.53;;;;;;;;;;5015546;28;20056;-73
2022/08/28 14:47:59;;;;;;;3.63;3.25;;;;;;;;;;5012631;28;20569;-73
2022/08/28 14:50:26;;;;;;;6.68;3.45;;;;;;;;;;5015351;28;20433;-72
2022/08/28 14:52:53;;;;;;;4.07;3.67;;;;;;;;;;5014272;28;20487;-73
2022/08/28 14:55:20;;;;;;;5.22;3.47;;;;;;;;;;5015147;28;20410;-73
2022/08/28 14:57:47;;;;;;;4.07;3.65;;;;;;;;;;5018168;28;20064;-74
2022/08/28 15:00:16;;;;;;;4.28;3.13;;;;;;;;;;5017674;28;20414;-74
2022/08/28 15:02:43;;;;;;;4.28;3.25;;;;;;;;;;5021746;28;20763;-78
2022/08/28 15:05:10;;;;;;;4.43;3.35;;;;;;;;;;4999582;28;20099;-78
2022/08/28 15:07:37;;;;;;;5.82;3.50;;;;;;;;;;5021512;28;20129;-79